Statewide Weather Sensors

Route Weather Station Name Milepost Date / Time Surface Status Surface Temp Precip Intensity Wind Avg Wind Gust Dir Dewpoint Humidity Air Temp Visibility
I 25 Wyo Hill 3.52 Mar 06, 2021 12:58 am     None None 9 mph 9 mph W 15.8°F 46% 33.8°F > 1/2 mi
I 25 Whitaker 30.2 Mar 06, 2021 12:58 am Dry 25.5°F None None 12 mph 15 mph W 14.0°F 57% 26.6°F > 1/2 mi
I 25 Bear Creek 46.77 Mar 06, 2021 12:58 am Dry 34.2°F None None 14 mph 16 mph SW 12.2°F 40% 35.6°F > 1/2 mi
I 25 Bordeaux 70.8 Mar 06, 2021 12:58 am Dry 36.7°F None None 14 mph 18 mph S 17.6°F 42% 37.4°F > 1/2 mi
I 25 Coleman 98.7 Mar 06, 2021 12:58 am Dry 33.4°F None None 3 mph 6 mph NW 17.6°F 46% 35.6°F > 1/2 mi
I 25 Platte/Converse County Line 119.9 Mar 06, 2021 12:58 am Dry 26.8°F None None 3 mph 4 mph S 32.0°F 87% 24.8°F > 1/2 mi
I 25 Deer Creek 164.2 Mar 06, 2021 12:58 am Dry 31.5°F None None 1 mph 3 mph S       > 1/2 mi
I 25 Hat Six 181.67 Mar 06, 2021 12:58 am Dry 28.8°F None None 4 mph 8 mph E 17.6°F 69% 24.8°F > 1/2 mi
I 25 F Street Hill 189.51 Mar 06, 2021 12:58 am Dry 36.7°F None None 14 mph 19 mph SW 12.2°F 25% 46.4°F > 1/2 mi
I 25 Twenty Mile Hill 207.2 Mar 06, 2021 12:58 am     None None 17 mph 19 mph SW 19.4°F 54% 35.6°F > 1/2 mi
I 25 Smokey Gap 228.58 Mar 06, 2021 12:58 am Dry 31.3°F None None 20 mph 29 mph S 23.0°F 51% 39.2°F > 1/2 mi
I 25 Tisdale 238.87 Mar 06, 2021 12:59 am Dry 31.8°F None None 24 mph 32 mph SW 17.6°F 36% 42.8°F > 1/2 mi
I 25 I-25 Divide 267.3 Mar 06, 2021 12:58 am N/A   None None 11 mph 12 mph S 19.4°F 66% 30.2°F > 1/2 mi
I 80 Evanston POE .06 Mar 06, 2021 12:58 am Dry 17.1°F None   0 mph 2 mph SW 10.4°F 86% 14.0°F > 1/2 mi
I 80 Evanston 4.2 Mar 06, 2021 12:58 am N/A   None None 2 mph 4 mph NW 15.8°F 63% 26.6°F > 1/2 mi
I 80 Bear River Drive 6.94 Mar 06, 2021 12:58 am Dry 21.2°F None   0 mph 1 mph N 15.8°F 77% 21.2°F > 1/2 mi
I 80 Painter 10.16 Mar 06, 2021 12:58 am Dry 27.3°F None None 5 mph 7 mph W 12.2°F 54% 26.6°F > 1/2 mi
I 80 First Divide 13.86 Mar 06, 2021 12:58 am     None None 2 mph 3 mph E 6.8°F 32% 33.8°F > 1/2 mi
I 80 US 189 Interchange 17.66 Mar 06, 2021 12:58 am Dry 27.5°F None None 0 mph 0 mph SW 14.0°F 68% 23.0°F > 1/2 mi
I 80 Coal Road 20.95 Mar 06, 2021 12:58 am Dry 30.9°F None None 3 mph 4 mph S 14.0°F 49% 30.2°F > 1/2 mi
I 80 Leroy 23.35 Mar 06, 2021 12:58 am Dry 27.9°F None None 0 mph 2 mph S 15.8°F 79% 21.2°F > 1/2 mi
I 80 French 27.6 Mar 06, 2021 12:58 am Dry 30.7°F None None 2 mph 4 mph SE 10.4°F 42% 32.0°F > 1/2 mi
I 80 Church Butte 52.65 Mar 06, 2021 12:58 am N/A   None None 1 mph 2 mph S 17.6°F 63% 28.4°F > 1/2 mi
I 80 Peru Hill 82.31 Mar 06, 2021 12:58 am     None None 8 mph 9 mph NE 17.6°F 66% 26.6°F > 1/2 mi
I 80 Green River Tunnel 90.5 Mar 06, 2021 12:58 am Dry 33.8°F None None 3 mph 6 mph SW 17.6°F 54% 32.0°F > 1/2 mi
I 80 Rock Springs West 97.9 Mar 06, 2021 12:58 am N/A   None None 2 mph 6 mph E 17.6°F 78% 23.0°F > 1/2 mi
I 80 Baxter Road 111.5 Mar 06, 2021 12:58 am     None None 4 mph 6 mph N 19.4°F 69% 28.4°F > 1/2 mi
I 80 Mile Marker 124.5 124.5 Mar 06, 2021 12:58 am N/A   None None 1 mph 2 mph NE 19.4°F 72% 26.6°F > 1/2 mi
I 80 Point of Rocks 129.8 Mar 06, 2021 12:58 am N/A   None None 2 mph 4 mph S 19.4°F 86% 23.0°F > 1/2 mi
I 80 Bitter Creek 141.83 Mar 06, 2021 12:58 am Dry 31.5°F None None 15 mph 19 mph W 17.6°F 59% 30.2°F > 1/2 mi
I 80 Tipton 156.72 Mar 06, 2021 12:58 am Dry 29.5°F None None 17 mph 20 mph S 19.4°F 58% 32.0°F > 1/2 mi
I 80 Continental Divide 184.3 Mar 06, 2021 12:58 am     None None 6 mph 9 mph S 17.6°F 57% 30.2°F > 1/2 mi
I 80 Sinclair 221.7 Mar 06, 2021 12:58 am N/A   None None 6 mph 9 mph SE 19.4°F 70% 26.6°F > 1/2 mi
I 80 Walcott Junction 234.66 Mar 06, 2021 12:58 am N/A   None None 2 mph 4 mph E 21.2°F 86% 24.8°F > 1/2 mi
I 80 Dana Ridge 244.8 Mar 06, 2021 12:58 am Dry 25.9°F None None 7 mph 8 mph W 19.4°F 78% 24.8°F > 1/2 mi
I 80 Mile Marker 249.1 249.1 Mar 06, 2021 12:58 am N/A   None None 16 mph 17 mph SW 6.8°F 30% 35.6°F > 1/2 mi
I 80 Halleck Ridge 252.16 Mar 06, 2021 12:58 am N/A   None None 16 mph 22 mph S -0.4°F 19% 39.2°F > 1/2 mi
I 80 Elk Mountain 256.17 Mar 06, 2021 12:58 am Trace Moisture 25.0°F None None 4 mph 7 mph N 14.0°F 53% 28.4°F > 1/2 mi
I 80 County Road 402 262 Mar 06, 2021 12:58 am Dry 27.9°F None None 16 mph 22 mph SE 5.0°F 30% 33.8°F > 1/2 mi
I 80 Wagonhound 266.58 Mar 06, 2021 12:58 am Dry 21.7°F None None 7 mph 13 mph S 5.0°F 29% 32.0°F > 1/2 mi
I 80 Foote Creek 269.5 Mar 06, 2021 12:58 am N/A   None                
I 80 Arlington 271.8 Mar 06, 2021 12:58 am Dry 29.7°F None None 21 mph 26 mph W -2.2°F 18% 37.4°F > 1/2 mi
I 80 Arlington East 273.85 Mar 06, 2021 12:58 am Dry 26.6°F None None 1 mph 4 mph NW -2.2°F 25% 30.2°F > 1/2 mi
I 80 Cooper Cove 279.36 Mar 06, 2021 12:58 am Dry 22.8°F None None 7 mph 12 mph E 6.8°F 31% 33.8°F > 1/2 mi
I 80 Strouss Hill 283.75 Mar 06, 2021 12:58 am Dry 26.2°F None None 2 mph 6 mph SW 6.8°F 34% 32.0°F > 1/2 mi
I 80 Quealy Dome 289.5 Mar 06, 2021 12:58 am Dry 25.3°F None None 6 mph 8 mph W 12.2°F 60% 23.0°F > 1/2 mi
I 80 Herrick Lane 297.66 Mar 06, 2021 12:58 am N/A   None                
I 80 Summit East 325.8 Mar 06, 2021 12:58 am Dry 24.4°F None None 12 mph 14 mph W 6.8°F 35% 32.0°F > 1/2 mi
I 80 Vedauwoo 329.4 Mar 06, 2021 12:58 am Dry 27.0°F None None 10 mph 12 mph W 6.8°F 37% 30.2°F > 1/2 mi
I 80 Lone Tree 333.32 Mar 06, 2021 12:58 am Dry 24.6°F None None 7 mph 14 mph W 6.8°F 37% 28.4°F > 1/2 mi
I 80 Buford East 336.1 Mar 06, 2021 12:58 am Dry 25.7°F None None 12 mph 14 mph SW 5.0°F 32% 30.2°F > 1/2 mi
I 80 Remount Road 340.5 Mar 06, 2021 12:58 am Dry 25.9°F None None 9 mph 9 mph SW 8.6°F 44% 28.4°F > 1/2 mi
I 80 Otto 347.69 Mar 06, 2021 12:58 am Dry 28.9°F None None 12 mph 14 mph W 12.2°F 44% 32.0°F > 1/2 mi
I 80 MP 353 353 Mar 06, 2021 12:58 am Dry 32.9°F None None 1 mph 8 mph SW 15.8°F 56% 30.2°F > 1/2 mi
I 80 Cheyenne East 373 Mar 06, 2021 12:58 am Dry 33.1°F None None 9 mph 11 mph W 15.8°F 61% 26.6°F > 1/2 mi
I 90 Montana State Line .1 Mar 06, 2021 12:58 am Trace Moisture 32.2°F None None 9 mph 10 mph S 26.6°F 64% 37.4°F < 1/4 mi
I 90 Pompey Creek 35.3 Mar 06, 2021 12:58 am N/A   None None 6 mph 6 mph S   26% 26.6°F > 1/2 mi
I 90 Sheridan/Johnson County Line 41.33 Mar 06, 2021 12:58 am N/A   None None 2 mph 6 mph N   23% 30.2°F > 1/2 mi
I 90 Piney Creek Interchange 44.7 Mar 06, 2021 12:58 am Dry 33.1°F None None 0 mph 2 mph SE 14.0°F 43% 33.8°F > 1/2 mi
I 90 Kearny Divide 45.33 Mar 06, 2021 12:58 am Dry   None None 0 mph   NW   28% 28.4°F > 1/2 mi
I 90 Indian Creek Road 83.3 Mar 06, 2021 12:58 am Dry 32.2°F None None 13 mph 15 mph SW 21.2°F 56% 35.6°F > 1/2 mi
I 90 Dead Horse 91.5 Mar 06, 2021 12:50 am Trace Moisture 32.7°F None None 2 mph 4 mph NE 21.2°F 56% 35.6°F > 1/2 mi
I 90 Mile Marker 108 108 Mar 06, 2021 12:58 am N/A   None   14 mph 16 mph S 21.2°F 49% 39.2°F  
I 90 Inyan Kara 170.5 Mar 06, 2021 12:58 am Dry 32.9°F None   12 mph 13 mph SE 19.4°F 50% 37.4°F  
I 90 Beulah 205.9 Mar 06, 2021 12:58 am Dry 31.1°F None None 5 mph 7 mph SW 23.0°F 63% 33.8°F > 1/2 mi
US 14 Ucross 27.83 Mar 06, 2021 12:58 am Dry 30.7°F None None 5 mph 7 mph SE 23.0°F 91% 26.6°F > 1/2 mi
US 14 Granite Pass 38.95 Mar 06, 2021 12:58 am N/A   Freezing Rain Slight 2 mph 2 mph SE -0.4°F 26% 28.4°F > 1/2 mi
US 16 Big Horn County Line 44.01 Mar 06, 2021 12:58 am Dry 19.8°F None None 4 mph 7 mph N 3.2°F 52% 17.6°F > 1/2 mi
US 191 Farson 40.45 Mar 06, 2021 12:58 am N/A   None None 3 mph 6 mph NE 17.6°F 81% 21.2°F > 1/2 mi
US 191 Warren Bridge 119.9 Mar 06, 2021 12:58 am Dry 19.2°F None None 1 mph 5 mph N 1.4°F 78% 6.8°F > 1/2 mi
US 20 Natrona 30 Mar 06, 2021 12:58 am Ice Watch 29.3°F None None 2 mph 5 mph NE 19.4°F 64% 30.2°F > 1/2 mi
US 20 Hiland 57.4 Mar 06, 2021 12:58 am Dry 33.6°F None None 22 mph 29 mph S       > 1/2 mi
US 20 Van Tassell 57.85 Mar 06, 2021 12:58 am Dry 30.0°F None None 0 mph 1 mph N 24.8°F 87% 28.4°F > 1/2 mi
US 26 Wind River Lake 26.05 Mar 06, 2021 12:58 am Dry 19.8°F None None 2 mph 6 mph SE 3.2°F 41% 23.0°F > 1/2 mi
US 287 Pumpkin Vine 420.4 Mar 06, 2021 12:58 am N/A   None None 9 mph 10 mph W -0.4°F 21% 33.8°F > 1/2 mi
US 30 Sage Junction 34 Mar 06, 2021 12:58 am N/A   None None 14 mph 17 mph E 15.8°F 62% 26.6°F > 1/2 mi
US 30 Nugget Canyon 39.7 Mar 06, 2021 12:58 am     None None 2 mph 3 mph SE 12.2°F 87% 15.8°F > 1/2 mi
US 85 Gun Barrel 46.8 Mar 06, 2021 12:58 am Dry 32.2°F None None 11 mph 12 mph NW 17.6°F 55% 32.0°F > 1/2 mi
US 85 Four Corners 247.2 Mar 06, 2021 12:58 am Dry 23.4°F None None 8 mph 11 mph E 19.4°F 59% 30.2°F > 1/2 mi
WY 120 Meeteetse 61.5 Mar 06, 2021 12:58 am     None None 4 mph 6 mph S 14.0°F 39% 35.6°F > 1/2 mi
WY 210 Wildcat Trail 21.52 Mar 06, 2021 12:58 am Dry 28.2°F None None 12 mph 12 mph SW 3.2°F 27% 33.8°F > 1/2 mi
WY 210 Hynds Lodge Road 24.55 Mar 06, 2021 12:58 am N/A   None None 8 mph 11 mph SW 5.0°F 32% 32.0°F > 1/2 mi
WY 22 Teton Pass 11.2 Mar 06, 2021 12:58 am Dry 25.0°F None None 10 mph 15 mph E 10.4°F 50% 26.6°F > 1/2 mi
WY 220 Pathfinder Hill 80.1 Mar 06, 2021 12:58 am Dry 27.3°F None None 6 mph 9 mph SW 15.8°F 51% 32.0°F > 1/2 mi
WY 230 Skyline 230 113.2 Mar 06, 2021 12:58 am Dry 18.1°F None None 14 mph 17 mph E 19.4°F 100% 19.4°F > 1/2 mi
WY 258 Outer Drive 13.77 Mar 06, 2021 12:58 am Dry 40.1°F None None 24 mph 33 mph S 10.4°F 22% 48.2°F > 1/2 mi
WY 28 New South Pass 41.4 Mar 06, 2021 12:58 am Dry 21.6°F None None 8 mph 9 mph W 5.0°F 41% 26.6°F > 1/2 mi
WY 28 Lower Red Canyon 59.71 Mar 06, 2021 12:58 am Dry 30.9°F None None 29 mph 39 mph SW 5.0°F 20% 42.8°F > 1/2 mi
WY 296 Chief Joseph 32.96 Mar 06, 2021 12:58 am Ice Watch 20.8°F None None 15 mph 19 mph NW 6.8°F 33% 32.0°F > 1/2 mi
WY 372 Shute Creek 34 Mar 06, 2021 12:58 am N/A   None None 7 mph 9 mph NW 19.4°F 75% 24.8°F > 1/2 mi
WY 387 Pine Tree Junction 131.79 Sep 30, 2020 09:04 am                      
WY 487 Shirley Rim 37 Mar 06, 2021 12:58 am Ice Watch 23.0°F None None 9 mph 11 mph E 10.4°F 69% 19.4°F > 1/2 mi
WY 59 Belle Fourche 87 Mar 06, 2021 12:58 am Dry 36.3°F None   17 mph 20 mph S 23.0°F 55% 37.4°F  
WY 789 Beaver Rim 48.1 Mar 06, 2021 12:58 am     None None 17 mph 22 mph SW 6.8°F 34% 30.2°F > 1/2 mi

Contact Us
Copyright 2021 Disclaimer Privacy Policy Media